Time;durP1;ratioP1;P1;durP2;ratioP2;P2;SDS_P1;SDS_P2;PMS_P1;PMS_P2;Temp;Humidity;BMP_temperature;BMP_pressure;BME280_temperature;BME280_humidity;BME280_pressure;Samples;Min_cycle;Max_cycle;Signal;HPM_P1;HPM_P2
2021/05/16 00:00:47;;;;;;;15.70;5.72;;;;;;;23.79;34.72;99395.47;5072073;28;20116;-80
2021/05/16 00:03:13;;;;;;;16.65;5.53;;;;;;;23.73;34.66;99409.16;5071983;28;20107;-80
2021/05/16 00:05:38;;;;;;;21.60;6.50;;;;;;;23.70;34.79;99406.44;5073065;28;20052;-83
2021/05/16 00:08:05;;;;;;;16.60;6.45;;;;;;;23.71;34.70;99394.84;5071922;28;20041;-85
2021/05/16 00:10:31;;;;;;;13.32;4.68;;;;;;;23.72;34.56;99401.22;5071974;28;20028;-81
2021/05/16 00:12:58;;;;;;;19.67;6.55;;;;;;;23.68;34.49;99398.53;5073294;28;20430;-84
2021/05/16 00:15:27;;;;;;;16.17;5.97;;;;;;;23.64;34.71;99392.22;5072052;28;20024;-84
2021/05/16 00:17:54;;;;;;;18.40;5.50;;;;;;;23.64;34.59;99394.22;5072027;28;20036;-84
2021/05/16 00:20:24;;;;;;;22.77;6.88;;;;;;;23.61;34.75;99393.09;5073244;28;20025;-80
2021/05/16 00:22:50;;;;;;;21.85;6.53;;;;;;;23.58;34.80;99390.34;5071945;28;20040;-84
2021/05/16 00:25:17;;;;;;;19.00;5.45;;;;;;;23.57;34.91;99389.56;5073003;28;20060;-80
2021/05/16 00:27:44;;;;;;;19.00;5.55;;;;;;;23.56;34.69;99388.00;5072682;28;20025;-80
2021/05/16 00:30:13;;;;;;;23.70;7.18;;;;;;;23.55;34.58;99392.03;5073081;28;20036;-80
2021/05/16 00:32:39;;;;;;;17.90;5.90;;;;;;;23.52;34.67;99395.69;5073104;28;20035;-84
2021/05/16 00:35:08;;;;;;;15.07;5.05;;;;;;;23.40;34.93;99390.78;5071640;28;20085;-81
2021/05/16 00:37:35;;;;;;;20.67;5.63;;;;;;;23.34;35.02;99392.50;5072803;28;20402;-84
2021/05/16 00:40:01;;;;;;;17.67;6.47;;;;;;;23.32;35.03;99389.38;5071457;28;20607;-83
2021/05/16 00:42:26;;;;;;;18.55;5.15;;;;;;;23.28;35.03;99386.66;5072882;28;20031;-84
2021/05/16 00:45:10;;;;;;;19.48;5.88;;;;;;;23.19;35.03;99381.66;5073005;28;20020;-85
2021/05/16 00:47:38;;;;;;;27.15;6.13;;;;;;;23.18;34.67;99379.31;5072873;28;20025;-83
2021/05/16 00:50:07;;;;;;;16.48;5.82;;;;;;;23.14;34.61;99384.97;5071476;28;20025;-84
2021/05/16 00:52:32;;;;;;;18.50;5.40;;;;;;;23.15;34.57;99380.97;5072846;28;20025;-80
2021/05/16 00:54:58;;;;;;;19.30;6.53;;;;;;;23.10;34.69;99378.69;5072738;28;20074;-84
2021/05/16 00:57:24;;;;;;;17.27;5.45;;;;;;;23.10;34.62;99381.47;5072310;28;20491;-85
2021/05/16 00:59:49;;;;;;;17.42;5.28;;;;;;;23.10;34.50;99378.69;5071497;28;20179;-81
2021/05/16 01:02:16;;;;;;;14.27;5.15;;;;;;;23.07;34.55;99373.97;5072648;28;20063;-80
2021/05/16 01:04:42;;;;;;;16.77;4.72;;;;;;;22.98;34.50;99373.78;5071377;28;20391;-85
2021/05/16 01:07:09;;;;;;;19.35;5.82;;;;;;;22.96;34.44;99373.41;5072426;28;20029;-84
2021/05/16 01:09:35;;;;;;;20.58;5.93;;;;;;;22.87;34.65;99379.56;5071437;28;20025;-80
2021/05/16 01:12:03;;;;;;;24.52;7.03;;;;;;;22.80;35.02;99381.69;5071095;28;20037;-82
2021/05/16 01:14:33;;;;;;;20.27;6.90;;;;;;;22.78;34.80;99376.53;5072539;28;20035;-81
2021/05/16 01:17:00;;;;;;;14.60;5.22;;;;;;;22.80;34.96;99376.09;5071285;28;20028;-85
2021/05/16 01:19:25;;;;;;;17.23;6.30;;;;;;;22.75;34.98;99376.59;5071131;28;20390;-79
2021/05/16 01:21:54;;;;;;;23.80;6.10;;;;;;;22.79;34.95;99374.53;5071311;28;20029;-82
2021/05/16 01:24:21;;;;;;;28.20;6.32;;;;;;;22.81;34.91;99377.66;5072295;28;20036;-80
2021/05/16 01:26:49;;;;;;;11.93;4.75;;;;;;;22.74;35.02;99372.25;5071061;28;20029;-81
2021/05/16 01:29:16;;;;;;;14.25;4.57;;;;;;;22.78;35.13;99370.19;5072345;28;20048;-83
2021/05/16 01:31:42;;;;;;;10.02;4.28;;;;;;;22.71;35.08;99369.13;5072336;28;20023;-85
2021/05/16 01:34:07;;;;;;;15.80;4.50;;;;;;;22.69;34.99;99374.31;5070968;28;20024;-80
2021/05/16 01:36:34;;;;;;;16.65;5.45;;;;;;;22.70;35.14;99367.53;5072259;28;20028;-80
2021/05/16 01:39:00;;;;;;;14.38;5.28;;;;;;;22.70;35.05;99369.53;5071405;28;20032;-81
2021/05/16 01:41:26;;;;;;;18.75;4.90;;;;;;;22.65;35.17;99364.47;5076111;28;20416;-80
2021/05/16 01:43:53;;;;;;;23.55;7.30;;;;;;;22.67;35.03;99368.41;5076122;28;20036;-80
2021/05/16 01:46:19;;;;;;;11.68;3.83;;;;;;;22.65;35.06;99365.25;5075962;28;20467;-83
2021/05/16 01:48:44;;;;;;;7.18;3.60;;;;;;;22.68;35.00;99363.63;5074719;28;20043;-80
2021/05/16 01:51:11;;;;;;;9.23;4.00;;;;;;;22.63;34.90;99361.34;5075951;28;20036;-84
2021/05/16 01:53:37;;;;;;;13.88;4.97;;;;;;;22.64;34.74;99354.53;5075908;28;20476;-80
2021/05/16 01:56:03;;;;;;;12.55;4.90;;;;;;;22.55;34.99;99357.13;5075774;28;20024;-80
2021/05/16 01:58:30;;;;;;;19.25;5.75;;;;;;;22.55;35.12;99355.13;5075584;28;20044;-82
2021/05/16 02:00:56;;;;;;;18.73;5.10;;;;;;;22.61;34.67;99352.63;5075818;28;20021;-80
2021/05/16 02:03:21;;;;;;;17.83;5.57;;;;;;;22.62;34.86;99357.75;5075949;28;20056;-80
2021/05/16 02:05:49;;;;;;;12.32;5.00;;;;;;;22.58;35.04;99357.03;5075759;28;20138;-85
2021/05/16 02:08:15;;;;;;;17.55;4.93;;;;;;;22.61;35.02;99352.63;5075825;28;20032;-81
2021/05/16 02:10:41;;;;;;;12.32;4.75;;;;;;;22.64;34.89;99352.53;5075693;28;20025;-81
2021/05/16 02:13:06;;;;;;;14.00;5.03;;;;;;;22.73;34.89;99349.19;5075539;28;20053;-85
2021/05/16 02:15:32;;;;;;;12.98;4.72;;;;;;;22.72;34.84;99342.06;5075592;28;20527;-84
2021/05/16 02:18:00;;;;;;;13.45;4.95;;;;;;;22.76;34.70;99358.69;5074236;28;20029;-85
2021/05/16 02:20:26;;;;;;;13.27;4.40;;;;;;;22.77;35.02;99351.91;5074024;28;20056;-80
2021/05/16 02:22:51;;;;;;;15.98;4.63;;;;;;;22.76;34.92;99350.34;5075361;28;20052;-84
2021/05/16 02:25:17;;;;;;;15.73;5.18;;;;;;;22.71;35.07;99357.19;5075254;28;20521;-81
2021/05/16 02:27:44;;;;;;;13.45;5.07;;;;;;;22.71;35.03;99349.63;5075243;28;20036;-81
2021/05/16 02:30:11;;;;;;;12.35;6.25;;;;;;;22.73;34.85;99343.63;5074025;28;20060;-83
2021/05/16 02:32:38;;;;;;;15.27;5.60;;;;;;;22.70;34.97;99338.91;5075226;28;20029;-80
2021/05/16 02:35:06;;;;;;;16.52;6.00;;;;;;;22.67;35.08;99348.94;5075337;28;20020;-85
2021/05/16 02:37:32;;;;;;;15.25;6.03;;;;;;;22.51;35.28;99357.19;5074921;28;20073;-80
2021/05/16 02:39:57;;;;;;;14.38;5.00;;;;;;;22.58;34.91;99362.59;5075042;28;20029;-80
2021/05/16 02:42:23;;;;;;;11.98;4.60;;;;;;;22.60;34.94;99357.41;5075064;28;20031;-85
2021/05/16 02:44:48;;;;;;;12.30;4.80;;;;;;;22.47;35.22;99359.25;5074952;28;20382;-84
2021/05/16 02:47:14;;;;;;;14.05;5.53;;;;;;;22.49;35.07;99362.38;5075103;28;20532;-81
2021/05/16 02:49:40;;;;;;;16.95;6.68;;;;;;;22.48;35.07;99354.47;5074506;28;20064;-84
2021/05/16 02:52:05;;;;;;;12.63;5.40;;;;;;;22.48;34.83;99363.59;5073487;28;20024;-82
2021/05/16 02:54:31;;;;;;;11.77;4.75;;;;;;;22.53;35.12;99363.13;5073526;28;20029;-79
2021/05/16 02:56:56;;;;;;;11.65;4.82;;;;;;;22.51;34.91;99365.53;5074447;28;20032;-84
2021/05/16 02:59:23;;;;;;;10.90;5.38;;;;;;;22.49;35.13;99361.59;5074611;28;20039;-80
2021/05/16 03:01:49;;;;;;;12.32;5.38;;;;;;;22.52;35.06;99357.97;5074567;28;20020;-81
2021/05/16 03:04:14;;;;;;;15.82;5.68;;;;;;;22.46;35.29;99352.13;5074533;28;20028;-85
2021/05/16 03:06:40;;;;;;;20.50;6.95;;;;;;;22.59;35.19;99357.81;5074519;28;20054;-80
2021/05/16 03:09:06;;;;;;;17.95;5.75;;;;;;;22.61;35.09;99349.84;5074455;28;20398;-81
2021/05/16 03:11:32;;;;;;;16.45;5.15;;;;;;;22.65;35.13;99354.13;5074378;28;20455;-85
2021/05/16 03:13:57;;;;;;;13.85;5.07;;;;;;;22.66;35.16;99354.91;5073370;28;20024;-81
2021/05/16 03:16:24;;;;;;;15.10;6.22;;;;;;;22.64;35.13;99354.53;5073298;28;20032;-81
2021/05/16 03:18:49;;;;;;;16.88;5.78;;;;;;;22.68;35.05;99347.72;5074549;28;20043;-81
2021/05/16 03:21:15;;;;;;;14.35;6.07;;;;;;;22.65;35.11;99347.75;5073140;28;20029;-85
2021/05/16 03:23:40;;;;;;;13.27;6.10;;;;;;;22.70;35.16;99350.06;5074360;28;20024;-82
2021/05/16 03:26:06;;;;;;;13.45;5.70;;;;;;;22.70;35.30;99350.84;5074265;28;20029;-81
2021/05/16 03:28:31;;;;;;;15.38;5.60;;;;;;;22.71;35.29;99341.28;5072929;28;20410;-83
2021/05/16 03:30:58;;;;;;;14.82;5.65;;;;;;;22.71;35.41;99341.28;5073082;28;20036;-83
2021/05/16 03:33:23;;;;;;;19.25;6.18;;;;;;;22.71;35.29;99344.06;5074255;28;20106;-85
2021/05/16 03:35:49;;;;;;;16.65;6.25;;;;;;;22.66;35.29;99346.53;5074079;28;20101;-80
2021/05/16 03:38:15;;;;;;;12.98;5.40;;;;;;;22.64;35.24;99352.53;5073971;28;20119;-82
2021/05/16 03:40:41;;;;;;;15.85;5.88;;;;;;;22.62;35.29;99348.63;5074117;28;20463;-86
2021/05/16 03:43:06;;;;;;;10.65;5.88;;;;;;;22.64;35.38;99346.97;5072814;28;20066;-85
2021/05/16 03:45:33;;;;;;;16.38;6.22;;;;;;;22.62;35.57;99343.84;5074068;28;20059;-81
2021/05/16 03:47:59;;;;;;;15.98;5.55;;;;;;;22.65;35.26;99340.19;5073771;28;20028;-84
2021/05/16 03:50:25;;;;;;;13.77;5.75;;;;;;;22.64;35.36;99344.19;5073729;28;20035;-81
2021/05/16 03:52:51;;;;;;;17.50;6.43;;;;;;;22.64;35.30;99343.41;5073701;28;20067;-81
2021/05/16 03:55:19;;;;;;;12.82;5.32;;;;;;;22.66;35.31;99347.31;5073528;28;20024;-85
2021/05/16 03:57:44;;;;;;;15.73;6.20;;;;;;;22.64;35.52;99344.19;5072054;28;20525;-81
2021/05/16 04:00:11;;;;;;;13.25;5.38;;;;;;;22.69;35.27;99335.34;5073721;28;20033;-85
2021/05/16 04:02:36;;;;;;;13.90;5.88;;;;;;;22.71;35.33;99340.47;5072921;28;20025;-80
2021/05/16 04:05:03;;;;;;;16.08;7.10;;;;;;;22.70;35.30;99344.50;5073701;28;20039;-82
2021/05/16 04:07:28;;;;;;;13.13;6.43;;;;;;;22.73;35.45;99343.63;5073665;28;20040;-84
2021/05/16 04:09:54;;;;;;;15.40;6.43;;;;;;;22.74;35.30;99338.84;5073685;28;20024;-81
2021/05/16 04:12:19;;;;;;;14.10;6.78;;;;;;;22.68;35.31;99331.00;5073385;28;20074;-80
2021/05/16 04:14:49;;;;;;;22.83;8.00;;;;;;;22.75;35.30;99340.41;5073579;28;20429;-85
2021/05/16 04:17:15;;;;;;;14.90;6.18;;;;;;;22.75;35.22;99334.81;5072418;28;20067;-80
2021/05/16 04:19:40;;;;;;;14.35;6.43;;;;;;;22.74;35.27;99338.84;5073366;28;20399;-81
2021/05/16 04:22:06;;;;;;;14.10;6.20;;;;;;;22.75;35.32;99340.41;5073446;28;20048;-83
2021/05/16 04:24:31;;;;;;;18.27;6.43;;;;;;;22.75;35.27;99338.44;5073410;28;20027;-83
2021/05/16 04:26:57;;;;;;;16.52;6.30;;;;;;;22.69;35.43;99343.72;5073270;28;20486;-80
2021/05/16 04:29:23;;;;;;;20.35;6.47;;;;;;;22.71;35.11;99343.28;5073135;28;20016;-85
2021/05/16 04:31:48;;;;;;;14.48;5.30;;;;;;;22.69;35.49;99335.34;5072953;28;20436;-84
2021/05/16 04:34:14;;;;;;;14.30;5.93;;;;;;;22.64;35.21;99346.97;5073303;28;20033;-83
2021/05/16 04:36:40;;;;;;;14.52;6.93;;;;;;;22.57;35.53;99346.34;5073058;28;20028;-82
2021/05/16 04:39:06;;;;;;;13.18;6.53;;;;;;;22.59;35.60;99349.47;5071839;28;20021;-84
2021/05/16 04:41:33;;;;;;;17.70;6.95;;;;;;;22.54;35.62;99350.78;5071772;28;20020;-85
2021/05/16 04:44:00;;;;;;;17.73;7.00;;;;;;;22.58;35.59;99351.47;5072943;28;20467;-84
2021/05/16 04:46:26;;;;;;;14.27;6.88;;;;;;;22.63;35.55;99348.19;5072676;28;20021;-85
2021/05/16 04:48:52;;;;;;;16.95;6.70;;;;;;;22.66;35.54;99344.53;5071967;28;20094;-86
2021/05/16 04:51:17;;;;;;;15.30;6.05;;;;;;;22.76;35.44;99347.56;5071360;28;20020;-81
2021/05/16 04:53:43;;;;;;;15.70;6.65;;;;;;;22.82;35.35;99340.25;5072815;28;20056;-85
2021/05/16 04:56:08;;;;;;;13.27;6.50;;;;;;;22.76;35.39;99342.00;5071472;28;20082;-85
2021/05/16 04:58:34;;;;;;;14.43;5.35;;;;;;;22.77;35.57;99343.56;5072161;28;20055;-84
2021/05/16 05:01:00;;;;;;;13.30;6.57;;;;;;;22.81;35.48;99344.25;5071405;28;20078;-84
2021/05/16 05:03:26;;;;;;;13.30;5.93;;;;;;;22.87;35.67;99340.56;5072819;28;20020;-83
2021/05/16 05:05:54;;;;;;;14.10;5.85;;;;;;;22.96;35.69;99351.91;5071420;28;20386;-85
2021/05/16 05:08:23;;;;;;;10.05;4.82;;;;;;;23.01;35.93;99333.13;5072769;28;20029;-84
2021/05/16 05:10:49;;;;;;;13.18;4.45;;;;;;;23.05;36.04;99345.78;5071295;28;20028;-81
2021/05/16 05:13:15;;;;;;;9.05;4.85;;;;;;;23.07;36.30;99346.13;5073589;28;20071;-85
2021/05/16 05:15:41;;;;;;;12.98;4.68;;;;;;;23.00;36.92;99348.28;5076778;28;20032;-80
2021/05/16 05:18:06;;;;;;;14.35;4.70;;;;;;;23.18;36.61;99345.88;5076631;28;20382;-81
2021/05/16 05:20:33;;;;;;;14.70;4.88;;;;;;;23.33;36.45;99355.47;5075421;28;20680;-83
2021/05/16 05:23:00;;;;;;;27.38;4.70;;;;;;;23.35;36.58;99357.84;5076554;28;20028;-81
2021/05/16 05:25:26;;;;;;;8.18;3.58;;;;;;;23.36;36.52;99353.84;5075317;28;20028;-81
2021/05/16 05:27:54;;;;;;;11.40;5.25;;;;;;;23.43;36.42;99362.06;5076453;28;20028;-81
2021/05/16 05:30:21;;;;;;;14.10;3.85;;;;;;;23.48;36.28;99362.31;5075110;28;20029;-80
2021/05/16 05:32:47;;;;;;;11.98;3.78;;;;;;;23.56;36.40;99359.34;5075235;28;20016;-82
2021/05/16 05:35:12;;;;;;;9.25;3.28;;;;;;;23.58;36.61;99351.31;5076616;28;20356;-83
2021/05/16 05:37:38;;;;;;;14.25;3.90;;;;;;;23.72;36.10;99351.78;5074935;28;20081;-85
2021/05/16 05:40:04;;;;;;;6.93;3.22;;;;;;;23.88;35.87;99353.81;5076029;28;20109;-80
2021/05/16 05:42:30;;;;;;;14.95;5.32;;;;;;;24.01;35.81;99357.44;5076016;28;20029;-80
2021/05/16 05:44:55;;;;;;;9.23;3.17;;;;;;;23.92;35.65;99360.09;5076029;28;20024;-81
2021/05/16 05:47:21;;;;;;;7.22;3.15;;;;;;;24.13;35.59;99360.75;5074677;28;20036;-81
2021/05/16 05:49:46;;;;;;;14.35;4.18;;;;;;;24.30;35.17;99363.06;5076009;28;20048;-83
2021/05/16 05:52:12;;;;;;;9.65;3.13;;;;;;;24.55;34.75;99365.22;5076159;28;20104;-84
2021/05/16 05:54:38;;;;;;;11.10;3.60;;;;;;;24.42;34.90;99363.63;5074763;28;20035;-81
2021/05/16 05:57:05;;;;;;;11.60;3.88;;;;;;;24.26;34.76;99356.03;5075527;28;20429;-81
2021/05/16 05:59:31;;;;;;;6.38;2.42;;;;;;;24.20;34.54;99366.94;5075887;28;20028;-81
2021/05/16 06:01:59;;;;;;;10.45;3.55;;;;;;;24.03;34.51;99370.97;5074646;28;20047;-81
2021/05/16 06:04:25;;;;;;;9.52;3.42;;;;;;;23.83;34.34;99370.28;5075786;28;20493;-81
2021/05/16 06:06:50;;;;;;;9.00;2.90;;;;;;;23.88;34.07;99369.75;5074602;28;20115;-84
2021/05/16 06:09:16;;;;;;;8.23;2.60;;;;;;;23.73;34.24;99364.53;5075610;28;20028;-80
2021/05/16 06:11:42;;;;;;;8.02;2.90;;;;;;;23.65;34.35;99368.69;5075746;28;20475;-83
2021/05/16 06:14:07;;;;;;;13.50;3.17;;;;;;;23.41;34.74;99378.41;5074449;28;20025;-85
2021/05/16 06:16:33;;;;;;;7.75;2.85;;;;;;;23.52;34.21;99371.38;5075563;28;20029;-86
2021/05/16 06:19:00;;;;;;;11.63;2.72;;;;;;;23.48;34.29;99376.22;5075617;28;20475;-85
2021/05/16 06:21:26;;;;;;;7.80;2.90;;;;;;;23.61;34.33;99372.81;5075459;28;20031;-81
2021/05/16 06:24:10;;;;;;;6.95;3.20;;;;;;;23.69;34.43;99374.97;5075483;28;20459;-85
2021/05/16 06:26:42;;;;;;;12.88;3.72;;;;;;;23.85;34.05;99373.41;5075036;28;20070;-82
2021/05/16 06:29:11;;;;;;;15.05;3.60;;;;;;;24.09;33.64;99372.00;5074048;28;20085;-81
2021/05/16 06:31:38;;;;;;;10.88;3.22;;;;;;;24.21;33.47;99374.09;5075501;28;20387;-82
2021/05/16 06:34:04;;;;;;;8.23;2.70;;;;;;;24.46;33.81;99378.25;5074133;28;20483;-85
2021/05/16 06:36:30;;;;;;;9.18;2.60;;;;;;;24.36;33.91;99382.91;5073812;28;20132;-84
2021/05/16 06:38:55;;;;;;;6.47;2.70;;;;;;;24.51;33.36;99383.31;5075689;28;20111;-86
2021/05/16 06:41:22;;;;;;;7.10;2.33;;;;;;;24.53;33.04;99384.44;5074520;28;20081;-86
2021/05/16 06:43:48;;;;;;;8.98;3.63;;;;;;;24.72;32.87;99376.34;5074275;28;20029;-85
2021/05/16 06:46:14;;;;;;;14.38;4.05;;;;;;;24.80;32.53;99378.50;5074403;28;20028;-83
2021/05/16 06:48:39;;;;;;;11.57;2.63;;;;;;;24.80;32.72;99380.50;5073919;28;20020;-82
2021/05/16 06:51:05;;;;;;;16.63;3.50;;;;;;;24.74;32.71;99380.25;5074082;28;20111;-85
2021/05/16 06:53:32;;;;;;;7.43;2.88;;;;;;;24.72;32.79;99382.72;5073945;28;20028;-93
2021/05/16 06:55:58;;;;;;;10.13;3.03;;;;;;;24.66;33.04;99378.13;5073929;28;20475;-89
2021/05/16 06:58:23;;;;;;;9.32;3.25;;;;;;;24.68;33.03;99386.81;5073694;28;20109;-86
2021/05/16 07:00:49;;;;;;;9.18;2.50;;;;;;;24.67;33.02;99382.47;5075294;28;20033;-90
2021/05/16 07:03:15;;;;;;;9.60;3.65;;;;;;;24.67;32.74;99388.84;5074292;28;20043;-86
2021/05/16 07:05:41;;;;;;;12.15;3.15;;;;;;;24.53;33.37;99387.22;5075241;28;20032;-84
2021/05/16 07:08:07;;;;;;;9.82;2.80;;;;;;;24.83;32.76;99390.78;5073670;28;20063;-82
2021/05/16 07:10:32;;;;;;;8.65;3.20;;;;;;;24.63;33.32;99382.56;5069543;28;20052;-90
2021/05/16 07:12:59;;;;;;;12.55;2.85;;;;;;;24.76;32.82;99388.19;5074774;28;20063;-85
2021/05/16 07:15:25;;;;;;;7.38;3.05;;;;;;;24.94;32.47;99393.25;5067253;28;20028;-85
2021/05/16 07:17:51;;;;;;;10.85;3.05;;;;;;;25.10;32.59;99396.03;5074011;28;20036;-89
2021/05/16 07:20:16;;;;;;;9.55;3.03;;;;;;;25.13;32.59;99395.91;5074978;28;20058;-91
2021/05/16 07:22:42;;;;;;;9.55;3.05;;;;;;;25.18;32.57;99391.81;5075655;28;20038;-91
2021/05/16 07:25:08;;;;;;;12.95;3.75;;;;;;;25.15;32.49;99392.66;5075001;28;20028;-87
2021/05/16 07:27:34;;;;;;;11.43;3.22;;;;;;;25.13;32.67;99406.31;5068298;28;20059;-84
2021/05/16 07:29:59;;;;;;;8.32;2.83;;;;;;;25.13;32.99;99390.31;5073879;28;20048;-89
2021/05/16 07:32:25;;;;;;;11.13;3.63;;;;;;;25.31;32.46;99389.78;5071423;28;20036;-89
2021/05/16 07:34:51;;;;;;;12.00;3.60;;;;;;;25.16;32.91;99400.63;5079994;28;20039;-83
2021/05/16 07:37:16;;;;;;;14.55;3.55;;;;;;;25.22;32.54;99400.84;5090966;28;20047;-86
2021/05/16 07:39:42;;;;;;;6.97;3.05;;;;;;;25.15;32.70;99399.03;5093368;28;20024;-85
2021/05/16 07:42:08;;;;;;;5.53;2.25;;;;;;;25.04;32.95;99403.41;5094580;28;20028;-82
2021/05/16 07:44:33;;;;;;;13.50;3.40;;;;;;;24.94;33.30;99404.44;5094934;28;20020;-86
2021/05/16 07:46:59;;;;;;;10.05;3.42;;;;;;;25.01;33.44;99405.00;5093781;28;20024;-82
2021/05/16 07:49:24;;;;;;;10.90;3.45;;;;;;;25.24;32.98;99400.41;5075673;28;20099;-79
2021/05/16 07:51:50;;;;;;;9.85;3.70;;;;;;;25.12;33.13;99405.53;5070820;28;20115;-78
2021/05/16 07:54:16;;;;;;;15.63;3.67;;;;;;;25.24;32.90;99401.22;5071142;28;20111;-78
2021/05/16 07:56:41;;;;;;;12.93;3.75;;;;;;;25.52;32.77;99398.75;5071280;28;20032;-79
2021/05/16 07:59:07;;;;;;;16.20;4.55;;;;;;;25.41;33.39;99408.25;5070588;28;20040;-79
2021/05/16 08:01:32;;;;;;;12.23;4.22;;;;;;;25.32;32.92;99413.75;5071554;28;20056;-79
2021/05/16 08:03:58;;;;;;;10.43;3.13;;;;;;;25.32;33.29;99412.97;5069805;28;20027;-79
2021/05/16 08:06:24;;;;;;;10.15;3.05;;;;;;;25.23;33.01;99416.38;5071339;28;20376;-79
2021/05/16 08:08:49;;;;;;;9.60;3.35;;;;;;;25.35;32.62;99403.66;5071497;28;20032;-79
2021/05/16 08:11:15;;;;;;;11.32;3.10;;;;;;;25.45;32.88;99405.34;5068859;28;20056;-80
2021/05/16 08:13:41;;;;;;;9.02;2.90;;;;;;;25.60;32.48;99409.25;5068947;28;20111;-79
2021/05/16 08:16:06;;;;;;;11.55;3.40;;;;;;;25.34;32.68;99402.09;5070346;28;20020;-83
2021/05/16 08:18:32;;;;;;;11.13;2.85;;;;;;;25.20;32.93;99417.28;5068707;28;20104;-80
2021/05/16 08:20:58;;;;;;;10.35;3.53;;;;;;;25.29;32.51;99414.63;5069306;28;20582;-78
2021/05/16 08:23:24;;;;;;;7.75;2.70;;;;;;;25.44;32.38;99407.34;5075296;28;20099;-77
2021/05/16 08:25:49;;;;;;;11.13;3.42;;;;;;;25.68;32.49;99412.63;5071626;28;20051;-85
2021/05/16 08:28:15;;;;;;;7.75;2.50;;;;;;;25.64;32.34;99418.34;5070159;28;20089;-82
2021/05/16 08:30:41;;;;;;;11.40;3.38;;;;;;;25.53;32.22;99422.69;5067496;28;20032;-83
2021/05/16 08:33:06;;;;;;;15.00;4.38;;;;;;;25.82;31.75;99428.97;5068151;28;20114;-81
2021/05/16 08:35:33;;;;;;;7.40;2.50;;;;;;;25.67;32.14;99422.25;5079941;28;20020;-80
2021/05/16 08:37:58;;;;;;;18.58;4.43;;;;;;;25.77;31.80;99420.38;5078373;28;20041;-79
2021/05/16 08:40:24;;;;;;;9.05;2.83;;;;;;;25.96;31.50;99428.53;5081626;28;20031;-83
2021/05/16 08:42:50;;;;;;;8.18;2.33;;;;;;;25.93;31.47;99425.84;5070420;28;20064;-78
2021/05/16 08:45:16;;;;;;;10.48;2.28;;;;;;;26.00;31.07;99423.63;5066317;28;20089;-78
2021/05/16 08:47:43;;;;;;;7.40;1.88;;;;;;;25.32;31.04;99435.31;5063395;28;20079;-80
2021/05/16 08:50:12;;;;;;;7.43;2.60;;;;;;;25.26;30.99;99434.28;5068519;28;20024;-78
2021/05/16 08:52:38;;;;;;;11.07;3.08;;;;;;;25.42;30.83;99432.19;5068000;28;20486;-77
2021/05/16 08:55:07;;;;;;;8.35;2.60;;;;;;;25.61;31.30;99433.19;5082735;28;20090;-76
2021/05/16 08:57:35;;;;;;;7.65;2.08;;;;;;;25.65;31.00;99435.91;5089484;27;20063;-76
2021/05/16 09:00:15;;;;;;;10.15;2.03;;;;;;;25.62;31.27;99425.63;5089600;28;20051;-75
2021/05/16 09:03:10;;;;;;;11.77;2.38;;;;;;;25.26;31.35;99435.09;5059811;28;20037;-76
2021/05/16 09:05:49;;;;;;;5.55;2.03;;;;;;;24.87;31.72;99434.16;5053056;28;20028;-77
2021/05/16 09:08:19;;;;;;;18.25;3.10;;;;;;;25.38;31.24;99434.31;5053023;28;20059;-84
2021/05/16 09:10:57;;;;;;;13.38;3.22;;;;;;;25.42;31.41;99432.19;5054291;28;20032;-81
2021/05/16 09:13:24;;;;;;;9.00;2.75;;;;;;;25.92;30.70;99433.47;5052549;28;20097;-77
2021/05/16 09:16:12;;;;;;;10.88;2.85;;;;;;;26.26;31.04;99435.53;5051655;28;20017;-83
2021/05/16 09:18:51;;;;;;;12.90;3.42;;;;;;;26.64;31.00;99433.88;5051011;28;20769;-82
2021/05/16 09:21:34;;;;;;;7.28;2.58;;;;;;;26.39;31.16;99445.97;5051867;28;20032;-80
2021/05/16 09:24:00;;;;;;;13.73;2.92;;;;;;;26.64;30.77;99445.09;5051232;28;20063;-82
2021/05/16 09:26:34;;;;;;;16.80;3.95;;;;;;;26.62;31.11;99444.78;5053089;28;20087;-82
2021/05/16 09:29:21;;;;;;;9.65;2.70;;;;;;;26.49;30.99;99442.78;5054263;28;20398;-81
2021/05/16 09:31:49;;;;;;;8.10;2.78;;;;;;;26.53;30.90;99443.47;5068462;28;20426;-81
2021/05/16 09:34:15;;;;;;;9.70;3.15;;;;;;;26.64;30.68;99442.28;5072762;28;20067;-81
2021/05/16 09:36:42;;;;;;;9.25;2.65;;;;;;;26.59;30.94;99434.47;5076170;28;20048;-83
2021/05/16 09:39:20;;;;;;;10.48;2.83;;;;;;;26.77;31.04;99451.44;5077600;28;20037;-83
2021/05/16 09:41:57;;;;;;;15.93;3.30;;;;;;;26.69;30.66;99447.31;5078387;28;20024;-84
2021/05/16 09:44:35;;;;;;;8.35;1.95;;;;;;;26.61;30.54;99448.81;5072838;28;20032;-81
2021/05/16 09:47:17;;;;;;;18.95;4.00;;;;;;;26.89;30.51;99449.81;5069888;28;20033;-85
2021/05/16 09:49:51;;;;;;;8.05;2.45;;;;;;;26.85;30.67;99449.16;5067968;28;20103;-80
2021/05/16 09:52:18;;;;;;;8.88;2.42;;;;;;;26.99;30.26;99446.63;5060793;28;20032;-80
2021/05/16 09:54:56;;;;;;;8.15;2.25;;;;;;;26.46;30.96;99454.13;5051485;28;20028;-83
2021/05/16 09:57:22;;;;;;;6.75;2.13;;;;;;;26.95;30.44;99453.59;5052384;28;20029;-80
2021/05/16 09:59:48;;;;;;;4.07;1.40;;;;;;;26.63;30.82;99447.13;5053243;28;20090;-82
2021/05/16 10:02:18;;;;;;;9.75;2.80;;;;;;;26.69;30.93;99450.13;5058280;28;20028;-82
2021/05/16 10:04:47;;;;;;;18.60;5.40;;;;;;;26.99;30.77;99452.22;5055344;28;20039;-84
2021/05/16 10:07:12;;;;;;;16.77;4.50;;;;;;;27.14;31.23;99449.72;5058208;28;20693;-84
2021/05/16 10:09:38;;;;;;;14.07;3.70;;;;;;;27.40;30.42;99455.16;5078782;28;20039;-82
2021/05/16 10:12:05;;;;;;;10.82;3.60;;;;;;;27.51;30.61;99456.34;5081888;28;20036;-83
2021/05/16 10:14:35;;;;;;;10.90;3.55;;;;;;;27.73;30.12;99461.91;5079201;28;20032;-83
2021/05/16 10:17:01;;;;;;;11.98;4.40;;;;;;;27.63;30.08;99460.28;5077196;28;20118;-84
2021/05/16 10:19:37;;;;;;;15.80;3.97;;;;;;;27.67;29.70;99472.19;5080134;28;20413;-83
2021/05/16 10:22:13;;;;;;;11.85;3.55;;;;;;;27.77;29.30;99468.16;5077208;28;20027;-84
2021/05/16 10:24:40;;;;;;;11.13;3.25;;;;;;;27.70;29.43;99460.03;5079311;28;20043;-84
2021/05/16 10:27:26;;;;;;;11.60;3.05;;;;;;;27.93;29.12;99458.72;5078034;28;20032;-82
2021/05/16 10:29:53;;;;;;;13.27;4.85;;;;;;;27.83;28.93;99477.56;5080159;27;20040;-86
2021/05/16 10:32:41;;;;;;;11.85;3.53;;;;;;;27.85;28.86;99471.47;5078559;28;20913;-82
2021/05/16 10:35:07;;;;;;;13.57;3.40;;;;;;;27.89;28.98;99477.72;5074832;28;20070;-81
2021/05/16 10:37:42;;;;;;;10.95;3.28;;;;;;;28.00;28.18;99466.06;5079278;28;20435;-84
2021/05/16 10:40:22;;;;;;;12.73;4.05;;;;;;;27.73;28.46;99470.31;5079564;28;20508;-82
2021/05/16 10:42:48;;;;;;;13.88;3.95;;;;;;;27.84;28.55;99469.91;5080555;28;20934;-84
2021/05/16 10:45:21;;;;;;;12.38;3.50;;;;;;;27.75;28.46;99481.09;5079416;28;20033;-87
2021/05/16 10:47:50;;;;;;;17.20;4.47;;;;;;;27.64;28.27;99478.66;5079318;28;20089;-84
2021/05/16 10:50:18;;;;;;;12.93;3.65;;;;;;;27.75;28.48;99479.06;5079439;28;20044;-82
2021/05/16 10:53:05;;;;;;;17.10;3.78;;;;;;;27.77;28.16;99478.59;5080389;28;20557;-82
2021/05/16 10:55:36;;;;;;;21.40;4.78;;;;;;;28.07;28.21;99477.78;5083372;28;20486;-88
2021/05/16 10:58:02;;;;;;;16.83;5.10;;;;;;;27.93;28.69;99481.94;5079820;28;20049;-85
2021/05/16 11:00:40;;;;;;;20.23;4.97;;;;;;;27.87;28.26;99478.16;5082502;28;20463;-82
2021/05/16 11:03:13;;;;;;;16.73;4.22;;;;;;;28.27;28.23;99482.22;5081316;28;20102;-83
2021/05/16 11:05:43;;;;;;;13.38;4.53;;;;;;;28.46;28.12;99481.03;5055726;28;20820;-80
2021/05/16 11:08:09;;;;;;;17.80;4.32;;;;;;;28.56;28.06;99485.41;5055725;28;20807;-80
2021/05/16 11:10:37;;;;;;;23.77;4.68;;;;;;;28.54;27.74;99489.94;5057261;28;20067;-86
2021/05/16 11:13:16;;;;;;;12.45;3.60;;;;;;;28.15;27.74;99492.31;5057983;28;20029;-85
2021/05/16 11:15:49;;;;;;;13.00;4.07;;;;;;;28.45;27.27;99488.69;5058398;28;20035;-84
2021/05/16 11:18:17;;;;;;;20.25;4.55;;;;;;;28.70;27.31;99484.03;5055089;28;20044;-82
2021/05/16 11:20:44;;;;;;;15.88;4.13;;;;;;;28.46;27.70;99484.63;5057753;28;20514;-87
2021/05/16 11:23:24;;;;;;;11.65;3.17;;;;;;;28.56;27.26;99491.03;5057088;28;20012;-90
2021/05/16 11:25:56;;;;;;;13.07;3.55;;;;;;;28.54;26.82;99498.38;5058893;28;20097;-87
2021/05/16 11:28:23;;;;;;;15.02;3.95;;;;;;;28.56;27.17;99490.25;5058183;28;20044;-89